createdAt,value
2018-07-07T00:01:39.942Z,31.17
2018-07-07T00:04:09.058Z,34.77
2018-07-07T00:06:38.169Z,28.07
2018-07-07T00:09:07.438Z,29.00
2018-07-07T00:11:36.550Z,28.37
2018-07-07T00:14:05.788Z,29.57
2018-07-07T00:16:35.349Z,27.70
2018-07-07T00:19:04.548Z,24.77
2018-07-07T00:21:33.662Z,30.93
2018-07-07T00:24:02.800Z,27.67
2018-07-07T00:26:32.240Z,25.93
2018-07-07T00:29:01.344Z,28.50
2018-07-07T00:31:30.441Z,27.20
2018-07-07T00:33:59.630Z,30.87
2018-07-07T00:36:28.704Z,29.17
2018-07-07T00:38:57.800Z,47.07
2018-07-07T00:41:26.953Z,29.07
2018-07-07T00:43:56.088Z,39.87
2018-07-07T00:46:25.183Z,34.57
2018-07-07T00:48:54.471Z,35.23
2018-07-07T00:51:23.221Z,33.37
2018-07-07T00:53:52.246Z,29.17
2018-07-07T00:56:21.723Z,29.07
2018-07-07T00:58:50.960Z,32.80
2018-07-07T01:01:20.242Z,30.07
2018-07-07T01:03:49.452Z,31.60
2018-07-07T01:06:26.020Z,32.30
2018-07-07T01:08:54.929Z,33.30
2018-07-07T01:11:23.966Z,33.23
2018-07-07T01:13:53.225Z,39.63
2018-07-07T01:16:22.538Z,45.40
2018-07-07T01:18:51.623Z,42.70
2018-07-07T01:21:20.764Z,43.00
2018-07-07T01:23:49.998Z,37.93
2018-07-07T01:26:19.113Z,44.50
2018-07-07T01:28:48.257Z,35.17
2018-07-07T01:31:17.500Z,44.60
2018-07-07T01:33:46.243Z,45.07
2018-07-07T01:36:15.296Z,44.70
2018-07-07T01:38:44.503Z,39.53
2018-07-07T01:41:13.610Z,40.73
2018-07-07T01:43:42.738Z,57.60
2018-07-07T01:46:11.904Z,42.30
2018-07-07T01:48:41.088Z,43.73
2018-07-07T01:51:10.132Z,49.90
2018-07-07T01:53:39.312Z,49.03
2018-07-07T01:56:08.416Z,49.53
2018-07-07T01:58:37.508Z,48.83
2018-07-07T02:01:06.960Z,39.30
2018-07-07T02:03:36.240Z,42.17
2018-07-07T02:06:05.000Z,49.43
2018-07-07T02:08:33.940Z,40.67
2018-07-07T02:11:03.030Z,38.70
2018-07-07T02:13:32.126Z,34.17
2018-07-07T02:16:01.460Z,43.50
2018-07-07T02:18:30.524Z,55.90
2018-07-07T02:20:59.668Z,58.00
2018-07-07T02:23:28.848Z,44.47
2018-07-07T02:25:57.936Z,40.70
2018-07-07T02:28:27.044Z,44.63
2018-07-07T02:30:56.214Z,51.37
2018-07-07T02:33:25.334Z,45.23
2018-07-07T02:35:54.407Z,46.90
2018-07-07T02:38:23.589Z,72.03
2018-07-07T02:40:52.698Z,60.33
2018-07-07T02:43:21.856Z,64.30
2018-07-07T02:45:51.127Z,60.83
2018-07-07T02:48:20.210Z,68.80
2018-07-07T02:50:49.295Z,55.47
2018-07-07T02:53:18.543Z,57.20
2018-07-07T02:55:47.328Z,57.70
2018-07-07T02:58:16.383Z,42.83
2018-07-07T03:00:45.765Z,51.70
2018-07-07T03:03:14.886Z,49.10
2018-07-07T03:05:44.108Z,43.33
2018-07-07T03:08:13.357Z,52.87
2018-07-07T03:10:42.421Z,62.87
2018-07-07T03:13:11.165Z,50.73
2018-07-07T03:15:40.307Z,54.20
2018-07-07T03:18:09.451Z,45.43
2018-07-07T03:20:38.550Z,44.67
2018-07-07T03:23:07.776Z,46.53
2018-07-07T03:25:36.883Z,47.07
2018-07-07T03:28:06.020Z,41.10
2018-07-07T03:30:35.169Z,36.13
2018-07-07T03:33:04.275Z,43.50
2018-07-07T03:35:33.028Z,41.93
2018-07-07T03:38:02.564Z,39.93
2018-07-07T03:40:31.593Z,77.90
2018-07-07T03:43:00.681Z,34.10
2018-07-07T03:45:29.905Z,53.50
2018-07-07T03:47:59.059Z,40.67
2018-07-07T03:50:28.179Z,54.27
2018-07-07T03:52:57.723Z,41.13
2018-07-07T03:55:26.790Z,34.20
2018-07-07T03:57:55.889Z,55.27
2018-07-07T04:00:25.125Z,71.90
2018-07-07T04:02:54.267Z,43.87
2018-07-07T04:05:23.361Z,47.43
2018-07-07T04:07:53.091Z,36.67
2018-07-07T04:10:22.211Z,35.50
2018-07-07T04:12:51.301Z,50.33
2018-07-07T04:15:20.541Z,37.73
2018-07-07T04:17:49.307Z,45.83
2018-07-07T04:20:17.963Z,72.27
2018-07-07T04:22:47.099Z,58.63
2018-07-07T04:25:16.195Z,59.83
2018-07-07T04:27:44.917Z,27.63
2018-07-07T04:30:14.021Z,35.57
2018-07-07T04:32:43.225Z,36.80
2018-07-07T04:35:12.342Z,38.60
2018-07-07T04:37:41.693Z,53.20
2018-07-07T04:40:10.891Z,28.40
2018-07-07T04:42:39.989Z,36.90
2018-07-07T04:45:09.223Z,35.27
2018-07-07T04:47:38.353Z,49.97
2018-07-07T04:50:07.119Z,38.33
2018-07-07T04:52:36.606Z,38.97
2018-07-07T04:55:05.789Z,31.77
2018-07-07T04:57:34.870Z,25.03
2018-07-07T05:00:04.265Z,38.57
2018-07-07T05:02:33.393Z,28.97
2018-07-07T05:05:02.613Z,29.93
2018-07-07T05:07:31.839Z,39.93
2018-07-07T05:10:00.677Z,35.17
2018-07-07T05:12:29.681Z,37.47
2018-07-07T05:14:58.923Z,37.43
2018-07-07T05:17:28.057Z,39.17
2018-07-07T05:19:57.155Z,32.90
2018-07-07T05:22:26.661Z,31.90
2018-07-07T05:24:55.767Z,34.90
2018-07-07T05:27:24.949Z,35.63
2018-07-07T05:29:54.590Z,31.30
2018-07-07T05:32:23.668Z,33.60
2018-07-07T05:34:52.777Z,34.33
2018-07-07T05:37:22.209Z,33.37
2018-07-07T05:39:51.281Z,40.23
2018-07-07T05:42:20.576Z,39.40
2018-07-07T05:44:50.358Z,46.73
2018-07-07T05:47:19.495Z,42.63
2018-07-07T05:49:48.590Z,45.83
2018-07-07T05:52:17.777Z,42.57
2018-07-07T05:54:46.853Z,48.00
2018-07-07T05:57:16.005Z,48.53
2018-07-07T05:59:45.219Z,46.53
2018-07-07T06:02:14.319Z,48.87
2018-07-07T06:04:43.407Z,48.17
2018-07-07T06:07:12.683Z,53.67
2018-07-07T06:09:42.055Z,50.43
2018-07-07T06:12:11.333Z,50.87
2018-07-07T06:14:40.502Z,54.27
2018-07-07T06:17:09.580Z,59.53
2018-07-07T06:19:38.765Z,54.83
2018-07-07T06:22:08.371Z,54.53
2018-07-07T06:24:37.424Z,52.53
2018-07-07T06:27:06.650Z,57.10
2018-07-07T06:29:36.225Z,58.73
2018-07-07T06:32:05.385Z,54.27
2018-07-07T06:34:34.500Z,48.83
2018-07-07T06:37:03.836Z,50.73
2018-07-07T06:39:32.941Z,53.00
2018-07-07T06:42:02.602Z,49.93
2018-07-07T06:44:31.898Z,51.73
2018-07-07T06:47:01.174Z,45.67
2018-07-07T06:49:30.250Z,51.20
2018-07-07T06:51:59.466Z,51.07
2018-07-07T06:54:28.595Z,52.33
2018-07-07T06:56:57.708Z,48.30
2018-07-07T06:59:27.194Z,51.23
2018-07-07T07:01:56.306Z,49.33
2018-07-07T07:04:25.409Z,45.27
2018-07-07T07:06:54.578Z,46.50
2018-07-07T07:09:23.681Z,49.27
2018-07-07T07:11:52.833Z,50.60
2018-07-07T07:14:22.080Z,53.87
2018-07-07T07:16:51.178Z,45.83
2018-07-07T07:19:20.226Z,45.07
2018-07-07T07:21:49.364Z,44.37
2018-07-07T07:24:18.509Z,47.67
2018-07-07T07:26:47.604Z,44.20
2018-07-07T07:29:16.835Z,42.83
2018-07-07T07:31:46.010Z,40.37
2018-07-07T07:34:14.838Z,40.13
2018-07-07T07:36:45.295Z,39.87
2018-07-07T07:39:14.465Z,41.43
2018-07-07T07:41:44.138Z,40.03
2018-07-07T07:44:12.919Z,40.17
2018-07-07T07:46:41.595Z,33.80
2018-07-07T07:49:10.617Z,36.90
2018-07-07T07:51:39.626Z,34.03
2018-07-07T07:54:08.757Z,37.47
2018-07-07T07:56:37.978Z,33.13
2018-07-07T07:59:07.103Z,33.47
2018-07-07T08:01:35.823Z,31.53
2018-07-07T08:04:05.494Z,32.17
2018-07-07T08:06:34.569Z,28.47
2018-07-07T08:09:03.984Z,28.07
2018-07-07T08:11:33.203Z,28.43
2018-07-07T08:14:02.373Z,25.67
2018-07-07T08:16:31.721Z,26.43
2018-07-07T08:19:00.851Z,26.83
2018-07-07T08:21:29.946Z,26.77
2018-07-07T08:23:59.073Z,23.17
2018-07-07T08:26:28.391Z,28.20
2018-07-07T08:28:57.504Z,31.27
2018-07-07T08:31:26.588Z,28.00
2018-07-07T08:33:55.992Z,31.60
2018-07-07T08:36:25.148Z,24.53
2018-07-07T08:38:54.214Z,27.87
2018-07-07T08:41:23.617Z,26.40
2018-07-07T08:43:52.990Z,29.93
2018-07-07T08:46:22.080Z,25.10
2018-07-07T08:48:51.503Z,23.40
2018-07-07T08:51:20.624Z,23.83
2018-07-07T08:53:49.690Z,25.20
2018-07-07T08:56:19.022Z,22.83
2018-07-07T08:58:48.098Z,21.40
2018-07-07T09:01:17.204Z,29.77
2018-07-07T09:03:46.678Z,25.33
2018-07-07T09:06:15.774Z,30.40
2018-07-07T09:08:44.882Z,22.67
2018-07-07T09:11:14.933Z,26.43
2018-07-07T09:13:43.687Z,27.87
2018-07-07T09:16:12.710Z,26.23
2018-07-07T09:18:42.422Z,24.27
2018-07-07T09:21:11.526Z,26.47
2018-07-07T09:23:40.614Z,24.20
2018-07-07T09:26:10.063Z,23.57
2018-07-07T09:28:39.257Z,26.03
2018-07-07T09:31:08.801Z,25.27
2018-07-07T09:33:38.603Z,22.30
2018-07-07T09:36:08.221Z,26.43
2018-07-07T09:38:37.331Z,22.60
2018-07-07T09:41:06.597Z,24.60
2018-07-07T09:43:35.696Z,19.10
2018-07-07T09:46:04.866Z,18.67
2018-07-07T09:48:34.012Z,21.17
2018-07-07T09:51:03.210Z,15.43
2018-07-07T09:53:32.399Z,12.30
2018-07-07T09:56:01.638Z,12.57
2018-07-07T09:58:30.770Z,14.07
2018-07-07T10:00:59.872Z,12.50
2018-07-07T10:03:29.042Z,11.93
2018-07-07T10:05:58.112Z,12.83
2018-07-07T10:08:27.220Z,12.20
2018-07-07T10:10:56.871Z,10.83
2018-07-07T10:13:25.972Z,11.43
2018-07-07T10:15:55.008Z,14.53
2018-07-07T10:18:24.241Z,14.00
2018-07-07T10:20:53.815Z,15.83
2018-07-07T10:23:22.595Z,15.83
2018-07-07T10:25:51.829Z,12.47
2018-07-07T10:28:20.954Z,9.60
2018-07-07T10:30:50.047Z,14.70
2018-07-07T10:33:19.688Z,9.17
2018-07-07T10:35:48.508Z,8.60
2018-07-07T10:38:17.561Z,10.20
2018-07-07T10:40:46.705Z,10.30
2018-07-07T10:43:15.813Z,10.17
2018-07-07T10:45:44.980Z,13.27
2018-07-07T10:48:14.165Z,9.57
2018-07-07T10:50:43.282Z,6.53
2018-07-07T10:53:12.362Z,10.57
2018-07-07T10:55:41.519Z,8.07
2018-07-07T10:58:10.620Z,7.37
2018-07-07T11:00:39.720Z,6.00
2018-07-07T11:03:08.956Z,6.70
2018-07-07T11:05:38.034Z,9.03
2018-07-07T11:08:07.302Z,5.90
2018-07-07T11:10:36.777Z,6.33
2018-07-07T11:13:06.274Z,6.43
2018-07-07T11:15:35.438Z,10.47
2018-07-07T11:18:04.272Z,6.30
2018-07-07T11:20:33.263Z,7.27
2018-07-07T11:23:02.538Z,5.53
2018-07-07T11:25:31.818Z,5.27
2018-07-07T11:28:00.930Z,5.80
2018-07-07T11:30:30.027Z,6.37
2018-07-07T11:32:59.466Z,6.70
2018-07-07T11:35:28.599Z,6.77
2018-07-07T11:37:57.438Z,7.33
2018-07-07T11:40:26.606Z,18.87
2018-07-07T11:42:55.733Z,6.30
2018-07-07T11:45:24.837Z,7.40
2018-07-07T11:47:54.630Z,6.80
2018-07-07T11:50:23.766Z,10.10
2018-07-07T11:52:52.856Z,7.93
2018-07-07T11:55:22.214Z,5.00
2018-07-07T11:57:51.382Z,6.60
2018-07-07T12:00:20.128Z,6.20
2018-07-07T12:02:49.554Z,6.23
2018-07-07T12:05:18.702Z,5.47
2018-07-07T12:08:00.710Z,4.50
2018-07-07T12:10:17.890Z,4.67
2018-07-07T12:12:46.975Z,4.47
2018-07-07T12:15:16.135Z,5.07
2018-07-07T12:17:45.408Z,4.90
2018-07-07T12:20:14.547Z,4.77
2018-07-07T12:22:43.699Z,4.00
2018-07-07T12:25:13.019Z,4.40
2018-07-07T12:27:42.131Z,4.33
2018-07-07T12:30:11.233Z,3.20
2018-07-07T12:32:40.400Z,4.00
2018-07-07T12:35:09.504Z,3.80
2018-07-07T12:37:38.619Z,5.87
2018-07-07T12:40:08.215Z,3.73
2018-07-07T12:42:37.323Z,4.50
2018-07-07T12:45:06.410Z,4.83
2018-07-07T12:47:36.061Z,4.93
2018-07-07T12:50:05.250Z,4.73
2018-07-07T12:52:34.355Z,4.90
2018-07-07T12:55:03.765Z,3.80
2018-07-07T12:57:32.872Z,4.03
2018-07-07T13:00:02.091Z,4.30
2018-07-07T13:02:31.501Z,4.77
2018-07-07T13:05:00.575Z,4.30
2018-07-07T13:07:29.697Z,3.93
2018-07-07T13:09:59.084Z,3.80
2018-07-07T13:12:28.251Z,7.00
2018-07-07T13:14:57.430Z,3.83
2018-07-07T13:17:26.709Z,4.20
2018-07-07T13:19:55.764Z,4.53
2018-07-07T13:22:24.939Z,4.80
2018-07-07T13:24:54.285Z,6.90
2018-07-07T13:27:23.856Z,5.63
2018-07-07T13:29:52.984Z,4.70
2018-07-07T13:32:22.136Z,4.40
2018-07-07T13:34:51.260Z,5.20
2018-07-07T13:37:20.383Z,4.37
2018-07-07T13:39:49.540Z,4.47
2018-07-07T13:42:18.621Z,4.40
2018-07-07T13:44:47.760Z,4.50
2018-07-07T13:47:17.043Z,5.07
2018-07-07T13:49:46.144Z,4.27
2018-07-07T13:52:15.226Z,4.03
2018-07-07T13:54:44.200Z,4.03
2018-07-07T13:57:13.334Z,3.90
2018-07-07T13:59:42.515Z,5.10
2018-07-07T14:02:12.044Z,5.30
2018-07-07T14:04:41.115Z,4.10
2018-07-07T14:07:10.224Z,4.30
2018-07-07T14:09:40.113Z,3.80
2018-07-07T14:12:09.287Z,6.40
2018-07-07T14:14:38.451Z,7.37
2018-07-07T14:17:08.091Z,4.03
2018-07-07T14:19:37.143Z,7.13
2018-07-07T14:22:06.669Z,7.33
2018-07-07T14:24:35.820Z,5.90
2018-07-07T14:27:04.939Z,4.60
2018-07-07T14:29:34.029Z,8.60
2018-07-07T14:32:03.555Z,4.20
2018-07-07T14:34:32.665Z,4.10
2018-07-07T14:37:01.773Z,7.53
2018-07-07T14:39:49.849Z,8.20
2018-07-07T14:42:50.610Z,4.50
2018-07-07T14:45:22.706Z,4.80
2018-07-07T14:47:52.811Z,9.27
2018-07-07T14:50:22.120Z,5.07
2018-07-07T14:52:51.183Z,5.10
2018-07-07T14:55:21.725Z,7.60
2018-07-07T14:57:51.075Z,6.63
2018-07-07T15:00:22.295Z,6.57
2018-07-07T15:02:52.887Z,6.53
2018-07-07T15:05:22.015Z,6.57
2018-07-07T15:07:51.229Z,7.23
2018-07-07T15:10:20.637Z,7.20
2018-07-07T15:12:49.833Z,9.60
2018-07-07T15:15:19.281Z,6.90
2018-07-07T15:17:48.601Z,7.60
2018-07-07T15:20:17.714Z,6.83
2018-07-07T15:22:46.935Z,7.33
2018-07-07T15:25:16.266Z,7.97
2018-07-07T15:27:45.384Z,11.13
2018-07-07T15:30:14.573Z,8.17
2018-07-07T15:32:44.029Z,7.30
2018-07-07T15:35:13.139Z,7.60
2018-07-07T15:37:42.301Z,7.63
2018-07-07T15:40:11.172Z,8.13
2018-07-07T15:42:40.183Z,7.87
2018-07-07T15:45:08.981Z,12.83
2018-07-07T15:47:38.441Z,10.67
2018-07-07T15:50:07.615Z,10.90
2018-07-07T15:52:36.739Z,11.37
2018-07-07T15:55:06.945Z,9.47
2018-07-07T15:57:36.041Z,8.83
2018-07-07T16:00:06.309Z,11.17
2018-07-07T16:02:35.823Z,12.87
2018-07-07T16:05:05.339Z,64.57
2018-07-07T16:07:34.435Z,13.67
2018-07-07T16:10:04.292Z,10.37
2018-07-07T16:12:33.781Z,8.00
2018-07-07T16:15:02.908Z,9.20
2018-07-07T16:17:32.183Z,12.57
2018-07-07T16:20:01.345Z,8.07
2018-07-07T16:22:30.717Z,8.53
2018-07-07T16:25:00.080Z,8.77
2018-07-07T16:27:29.340Z,7.70
2018-07-07T16:29:58.639Z,7.70
2018-07-07T16:32:28.055Z,10.03
2018-07-07T16:34:57.929Z,7.50
2018-07-07T16:37:26.737Z,8.33
2018-07-07T16:39:56.714Z,10.87
2018-07-07T16:42:25.961Z,8.13
2018-07-07T16:44:55.128Z,7.10
2018-07-07T16:47:24.205Z,11.10
2018-07-07T16:49:53.417Z,8.50
2018-07-07T16:52:22.602Z,10.13
2018-07-07T16:54:52.071Z,9.20
2018-07-07T16:57:21.229Z,8.20
2018-07-07T16:59:50.355Z,6.90
2018-07-07T17:02:20.129Z,10.47
2018-07-07T17:04:50.236Z,6.80
2018-07-07T17:07:20.103Z,8.10
2018-07-07T17:09:49.829Z,8.50
2018-07-07T17:12:19.837Z,7.27
2018-07-07T17:14:49.513Z,7.43
2018-07-07T17:17:19.381Z,7.17
2018-07-07T17:19:48.572Z,9.93
2018-07-07T17:22:17.749Z,8.10
2018-07-07T17:24:47.077Z,7.17
2018-07-07T17:27:16.273Z,8.07
2018-07-07T17:29:45.507Z,7.17
2018-07-07T17:32:14.919Z,6.90
2018-07-07T17:34:43.681Z,8.33
2018-07-07T17:37:12.399Z,7.10
2018-07-07T17:39:41.560Z,7.80
2018-07-07T17:42:10.984Z,7.63
2018-07-07T17:44:40.101Z,7.00
2018-07-07T17:47:09.492Z,7.40
2018-07-07T17:49:39.222Z,9.40
2018-07-07T17:52:08.287Z,8.00
2018-07-07T17:54:37.688Z,8.70
2018-07-07T17:57:06.748Z,8.90
2018-07-07T17:59:36.325Z,7.17
2018-07-07T18:02:05.724Z,6.70
2018-07-07T18:04:35.203Z,6.60
2018-07-07T18:07:04.263Z,9.80
2018-07-07T18:09:33.505Z,10.20
2018-07-07T18:12:02.796Z,8.00
2018-07-07T18:14:31.831Z,8.93
2018-07-07T18:17:01.520Z,8.03
2018-07-07T18:19:30.588Z,6.90
2018-07-07T18:21:59.661Z,11.00
2018-07-07T18:24:29.009Z,6.30
2018-07-07T18:26:58.138Z,6.30
2018-07-07T18:29:27.252Z,10.23
2018-07-07T18:31:56.432Z,6.60
2018-07-07T18:34:25.504Z,7.80
2018-07-07T18:36:54.636Z,12.27
2018-07-07T18:39:24.155Z,8.80
2018-07-07T18:41:52.931Z,6.50
2018-07-07T18:44:22.527Z,7.30
2018-07-07T18:46:51.716Z,8.60
2018-07-07T18:49:20.874Z,9.53
2018-07-07T18:51:49.962Z,9.33
2018-07-07T18:54:19.233Z,10.10
2018-07-07T18:56:48.463Z,8.50
2018-07-07T18:59:17.528Z,8.90
2018-07-07T19:01:46.781Z,7.50
2018-07-07T19:04:15.906Z,9.87
2018-07-07T19:06:45.066Z,15.73
2018-07-07T19:09:15.985Z,9.70
2018-07-07T19:11:45.119Z,7.70
2018-07-07T19:14:14.255Z,8.47
2018-07-07T19:16:43.516Z,9.93
2018-07-07T19:19:12.810Z,11.33
2018-07-07T19:21:47.085Z,8.87
2018-07-07T19:24:21.650Z,9.10
2018-07-07T19:26:52.379Z,12.33
2018-07-07T19:29:22.466Z,9.37
2018-07-07T19:31:57.301Z,13.17
2018-07-07T19:34:31.635Z,8.73
2018-07-07T19:37:06.339Z,14.83
2018-07-07T19:39:35.527Z,11.13
2018-07-07T19:42:04.857Z,10.70
2018-07-07T19:44:34.026Z,10.30
2018-07-07T19:47:03.205Z,12.60
2018-07-07T19:49:32.921Z,12.00
2018-07-07T19:52:01.963Z,9.50
2018-07-07T19:54:31.047Z,9.63
2018-07-07T19:57:00.142Z,10.10
2018-07-07T19:59:29.167Z,10.47
2018-07-07T20:01:58.273Z,9.90
2018-07-07T20:04:27.513Z,15.93
2018-07-07T20:06:56.600Z,13.50
2018-07-07T20:09:25.735Z,14.93
2018-07-07T20:11:55.069Z,13.50
2018-07-07T20:14:26.640Z,18.63
2018-07-07T20:17:09.049Z,13.37
2018-07-07T20:20:58.279Z,11.03
2018-07-07T20:23:29.254Z,11.93
2018-07-07T20:26:04.401Z,13.33
2018-07-07T20:28:38.822Z,12.37
2018-07-07T20:31:07.873Z,13.10
2018-07-07T20:33:37.070Z,12.67
2018-07-07T20:36:06.217Z,11.80
2018-07-07T20:38:35.302Z,13.37
2018-07-07T20:41:04.565Z,13.93
2018-07-07T20:43:33.887Z,15.73
2018-07-07T20:46:03.060Z,18.63
2018-07-07T20:48:32.268Z,11.63
2018-07-07T20:51:01.373Z,16.20
2018-07-07T20:53:30.157Z,12.70
2018-07-07T20:55:58.903Z,12.63
2018-07-07T20:58:27.946Z,12.80
2018-07-07T21:00:57.029Z,13.10
2018-07-07T21:03:26.291Z,13.90
2018-07-07T21:05:55.407Z,13.73
2018-07-07T21:08:24.526Z,15.60
2018-07-07T21:10:53.719Z,12.43
2018-07-07T21:13:22.795Z,12.83
2018-07-07T21:15:51.920Z,15.30
2018-07-07T21:18:20.766Z,13.37
2018-07-07T21:20:49.815Z,15.50
2018-07-07T21:23:19.075Z,15.63
2018-07-07T21:25:48.260Z,12.90
2018-07-07T21:28:17.348Z,21.50
2018-07-07T21:30:46.459Z,12.63
2018-07-07T21:33:15.697Z,16.63
2018-07-07T21:35:44.817Z,17.27
2018-07-07T21:38:13.984Z,16.03
2018-07-07T21:40:43.887Z,13.07
2018-07-07T21:43:12.982Z,14.40
2018-07-07T21:45:42.144Z,19.93
2018-07-07T21:48:11.402Z,16.73
2018-07-07T21:50:40.554Z,14.67
2018-07-07T21:53:09.686Z,15.80
2018-07-07T21:55:39.286Z,13.60
2018-07-07T21:58:13.854Z,18.87
2018-07-07T22:02:02.635Z,15.30
2018-07-07T22:04:37.762Z,16.00
2018-07-07T22:07:13.308Z,15.67
2018-07-07T22:09:43.503Z,15.10
2018-07-07T22:12:12.718Z,14.23
2018-07-07T22:14:41.846Z,14.60
2018-07-07T22:17:11.308Z,18.53
2018-07-07T22:19:40.415Z,18.70
2018-07-07T22:22:10.393Z,18.60
2018-07-07T22:24:40.998Z,17.00
2018-07-07T22:27:11.296Z,14.30
2018-07-07T22:29:40.614Z,15.90
2018-07-07T22:32:15.193Z,15.37
2018-07-07T22:34:44.537Z,15.03
2018-07-07T22:37:13.676Z,15.23
2018-07-07T22:39:43.386Z,21.27
2018-07-07T22:42:14.940Z,13.97
2018-07-07T22:44:45.133Z,17.43
2018-07-07T22:47:14.477Z,19.07
2018-07-07T22:49:43.614Z,16.27
2018-07-07T22:52:12.780Z,16.77
2018-07-07T22:54:41.760Z,16.00
2018-07-07T22:57:10.797Z,21.13
2018-07-07T22:59:39.952Z,15.97
2018-07-07T23:02:09.221Z,18.80
2018-07-07T23:04:38.338Z,21.77
2018-07-07T23:07:07.963Z,21.30
2018-07-07T23:09:37.249Z,15.03
2018-07-07T23:12:06.419Z,17.40
2018-07-07T23:14:35.498Z,18.00
2018-07-07T23:17:06.322Z,15.57
2018-07-07T23:19:35.457Z,17.60
2018-07-07T23:22:04.218Z,16.60
2018-07-07T23:24:33.220Z,16.00
2018-07-07T23:27:02.121Z,17.67
2018-07-07T23:29:31.122Z,24.50
2018-07-07T23:31:59.963Z,15.63
2018-07-07T23:34:29.121Z,23.10
2018-07-07T23:36:57.872Z,18.53
2018-07-07T23:39:27.326Z,16.37
2018-07-07T23:41:56.487Z,17.47
2018-07-07T23:44:25.591Z,15.57
2018-07-07T23:46:54.955Z,18.60
2018-07-07T23:49:24.136Z,20.40
2018-07-07T23:51:53.434Z,22.23
2018-07-07T23:54:22.774Z,23.80
2018-07-07T23:56:51.899Z,16.70
2018-07-07T23:59:21.025Z,19.53
